Time;durP1;ratioP1;P1;durP2;ratioP2;P2;SDS_P1;SDS_P2;PMS_P1;PMS_P2;Temp;Humidity;BMP_temperature;BMP_pressure;BME280_temperature;BME280_humidity;BME280_pressure;Samples;Min_cycle;Max_cycle;Signal;HPM_P1;HPM_P2
2021/03/20 00:03:30;;;;;;;29.92;18.48;;;;;;;;;;6331974;22;20162;-95
2021/03/20 00:06:06;;;;;;;26.15;17.67;;;;;;;;;;6333277;22;20176;-94
2021/03/20 00:08:35;;;;;;;26.08;17.55;;;;;;;;;;6330511;22;20171;-95
2021/03/20 00:11:07;;;;;;;28.25;18.52;;;;;;;;;;6329984;22;20213;-95
2021/03/20 00:13:36;;;;;;;29.98;19.27;;;;;;;;;;6304765;22;20169;-94
2021/03/20 00:18:55;;;;;;;31.15;20.05;;;;;;;;;;6328507;22;20194;-94
2021/03/20 00:24:15;;;;;;;31.13;21.13;;;;;;;;;;6328634;22;20158;-96
2021/03/20 00:26:41;;;;;;;31.80;20.73;;;;;;;;;;6299958;22;20224;-94
2021/03/20 00:29:10;;;;;;;29.75;20.20;;;;;;;;;;6327557;22;20163;-94
2021/03/20 00:31:38;;;;;;;28.77;19.30;;;;;;;;;;6328144;22;20228;-94
2021/03/20 00:34:05;;;;;;;35.67;22.37;;;;;;;;;;6303814;22;20228;-94
2021/03/20 00:36:46;;;;;;;29.13;20.50;;;;;;;;;;6329515;22;20435;-94
2021/03/20 00:39:14;;;;;;;27.27;19.83;;;;;;;;;;6303937;22;20187;-94
2021/03/20 00:41:40;;;;;;;32.38;20.92;;;;;;;;;;6329341;22;20172;-94
2021/03/20 00:47:13;;;;;;;30.38;20.02;;;;;;;;;;6334605;22;20185;-94
2021/03/20 00:49:40;;;;;;;29.20;20.08;;;;;;;;;;6335294;22;20172;-94
2021/03/20 00:52:06;;;;;;;32.38;21.08;;;;;;;;;;6335015;22;20215;-94
2021/03/20 00:54:37;;;;;;;30.23;20.53;;;;;;;;;;6334641;22;20195;-94
2021/03/20 00:57:10;;;;;;;27.60;19.40;;;;;;;;;;6334221;22;20479;-94
2021/03/20 00:59:38;;;;;;;28.63;19.38;;;;;;;;;;6332089;22;20473;-94
2021/03/20 01:02:04;;;;;;;30.60;18.77;;;;;;;;;;6334505;22;20180;-94
2021/03/20 01:07:13;;;;;;;31.77;20.13;;;;;;;;;;6333637;22;20175;-94
2021/03/20 01:09:39;;;;;;;34.97;21.83;;;;;;;;;;6334140;22;20157;-95
2021/03/20 01:12:10;;;;;;;31.07;20.57;;;;;;;;;;6332613;22;20442;-95
2021/03/20 01:14:40;;;;;;;29.40;19.85;;;;;;;;;;6307420;22;20421;-95
2021/03/20 01:17:09;;;;;;;33.58;21.52;;;;;;;;;;6329293;22;20176;-94
2021/03/20 01:19:46;;;;;;;31.48;21.58;;;;;;;;;;6332214;22;20217;-94
2021/03/20 01:22:20;;;;;;;27.95;20.15;;;;;;;;;;6331730;22;20179;-94
2021/03/20 01:24:46;;;;;;;33.30;23.00;;;;;;;;;;6329423;22;20238;-93
2021/03/20 01:27:12;;;;;;;33.50;20.73;;;;;;;;;;6325377;22;20425;-94
2021/03/20 01:29:47;;;;;;;31.60;19.52;;;;;;;;;;6307051;22;20542;-94
2021/03/20 01:32:14;;;;;;;28.58;20.45;;;;;;;;;;6331854;22;20176;-94
2021/03/20 01:34:42;;;;;;;31.25;21.02;;;;;;;;;;6328480;22;20189;-93
2021/03/20 01:37:09;;;;;;;34.00;21.80;;;;;;;;;;6333657;22;20194;-93
2021/03/20 01:45:36;;;;;;;32.90;20.20;;;;;;;;;;6334104;22;20159;-95
2021/03/20 01:48:06;;;;;;;30.70;19.30;;;;;;;;;;6308964;22;20414;-94
2021/03/20 01:50:36;;;;;;;27.95;19.00;;;;;;;;;;6335001;22;20419;-95
2021/03/20 01:53:07;;;;;;;31.48;19.38;;;;;;;;;;6328754;22;20173;-94
2021/03/20 01:55:34;;;;;;;29.40;18.48;;;;;;;;;;6328174;22;20231;-94
2021/03/20 01:58:02;;;;;;;26.88;18.30;;;;;;;;;;6326799;22;20182;-95
2021/03/20 02:00:31;;;;;;;27.63;18.15;;;;;;;;;;6328213;22;20277;-94
2021/03/20 02:03:03;;;;;;;29.05;19.52;;;;;;;;;;6328181;22;20606;-94
2021/03/20 02:05:30;;;;;;;28.75;17.80;;;;;;;;;;6329730;22;20172;-93
2021/03/20 02:07:57;;;;;;;25.98;17.05;;;;;;;;;;6327556;22;20169;-93
2021/03/20 02:10:24;;;;;;;26.55;17.30;;;;;;;;;;6328440;22;20182;-94
2021/03/20 02:12:54;;;;;;;26.00;17.40;;;;;;;;;;6327527;22;20256;-94
2021/03/20 02:15:23;;;;;;;27.77;17.85;;;;;;;;;;6327452;22;20412;-93
2021/03/20 02:17:52;;;;;;;28.60;19.05;;;;;;;;;;6327332;22;20175;-93
2021/03/20 02:20:30;;;;;;;31.60;18.17;;;;;;;;;;6327370;22;20255;-95
2021/03/20 02:23:17;;;;;;;28.93;18.70;;;;;;;;;;6329639;22;20161;-94
2021/03/20 02:25:55;;;;;;;28.48;19.27;;;;;;;;;;6315655;22;20412;-94
2021/03/20 02:28:51;;;;;;;26.73;17.37;;;;;;;;;;6328388;22;20173;-94
2021/03/20 02:31:40;;;;;;;25.70;17.10;;;;;;;;;;6300738;22;20473;-94
2021/03/20 02:34:14;;;;;;;27.60;18.73;;;;;;;;;;6329694;22;20195;-93
2021/03/20 02:36:43;;;;;;;27.98;16.83;;;;;;;;;;6301866;22;20453;-94
2021/03/20 02:39:13;;;;;;;27.60;17.55;;;;;;;;;;6278148;22;20202;-94
2021/03/20 02:44:41;;;;;;;28.58;17.70;;;;;;;;;;6331643;22;20182;-94
2021/03/20 02:47:09;;;;;;;31.65;18.83;;;;;;;;;;6333060;22;20178;-95
2021/03/20 02:49:46;;;;;;;26.25;17.77;;;;;;;;;;6306596;22;20159;-95
2021/03/20 02:52:30;;;;;;;25.63;17.67;;;;;;;;;;6333977;22;20220;-95
2021/03/20 02:55:01;;;;;;;30.00;19.52;;;;;;;;;;6324234;22;20643;-95
2021/03/20 02:57:29;;;;;;;31.60;19.50;;;;;;;;;;6331817;22;20172;-94
2021/03/20 03:00:01;;;;;;;31.15;19.80;;;;;;;;;;6333867;22;20198;-96
2021/03/20 03:02:30;;;;;;;27.35;18.77;;;;;;;;;;6305076;22;20186;-94
2021/03/20 03:05:01;;;;;;;27.98;18.55;;;;;;;;;;6303466;22;20174;-95
2021/03/20 03:07:29;;;;;;;27.77;19.73;;;;;;;;;;6329987;22;20174;-95
2021/03/20 03:10:04;;;;;;;35.63;21.08;;;;;;;;;;6332104;22;20191;-94
2021/03/20 03:12:39;;;;;;;33.55;20.70;;;;;;;;;;6331864;22;20184;-95
2021/03/20 03:15:08;;;;;;;33.70;21.10;;;;;;;;;;6331151;22;20171;-95
2021/03/20 03:17:37;;;;;;;29.48;19.63;;;;;;;;;;6331847;22;20174;-95
2021/03/20 03:22:56;;;;;;;37.15;22.85;;;;;;;;;;6333563;22;20159;-95
2021/03/20 03:25:24;;;;;;;30.30;21.15;;;;;;;;;;6302999;22;20183;-94
2021/03/20 03:27:52;;;;;;;33.47;21.75;;;;;;;;;;6333041;22;20169;-95
2021/03/20 03:30:20;;;;;;;31.35;19.73;;;;;;;;;;6331938;22;20218;-93
2021/03/20 03:32:50;;;;;;;35.95;22.10;;;;;;;;;;6321149;22;20222;-95
2021/03/20 03:35:20;;;;;;;35.30;21.92;;;;;;;;;;6330203;22;20171;-95
2021/03/20 03:37:49;;;;;;;35.38;21.23;;;;;;;;;;6300395;22;20173;-95
2021/03/20 03:40:27;;;;;;;33.00;22.58;;;;;;;;;;6327023;22;20198;-94
2021/03/20 03:42:53;;;;;;;36.05;21.35;;;;;;;;;;6324371;22;20187;-94
2021/03/20 03:45:22;;;;;;;37.70;21.70;;;;;;;;;;6326414;22;20254;-94
2021/03/20 03:47:48;;;;;;;39.20;22.55;;;;;;;;;;6319912;22;20255;-94
2021/03/20 03:50:16;;;;;;;33.33;21.42;;;;;;;;;;6320449;22;20187;-95
2021/03/20 03:52:43;;;;;;;41.72;22.63;;;;;;;;;;6319263;22;20201;-95
2021/03/20 03:55:09;;;;;;;35.35;22.50;;;;;;;;;;6316590;22;20179;-95
2021/03/20 03:58:02;;;;;;;39.38;23.13;;;;;;;;;;6316374;22;20176;-95
2021/03/20 04:00:31;;;;;;;34.25;21.23;;;;;;;;;;6317831;22;20553;-95
2021/03/20 04:03:24;;;;;;;36.85;22.80;;;;;;;;;;6316204;22;20173;-95
2021/03/20 04:05:54;;;;;;;38.28;22.63;;;;;;;;;;6297557;22;20180;-94
2021/03/20 04:08:26;;;;;;;35.85;21.63;;;;;;;;;;6315951;22;20186;-94
2021/03/20 04:10:54;;;;;;;32.17;21.30;;;;;;;;;;6316342;22;20175;-94
2021/03/20 04:13:24;;;;;;;40.45;23.45;;;;;;;;;;6314128;22;20223;-95
2021/03/20 04:15:55;;;;;;;37.53;24.63;;;;;;;;;;6317106;22;20514;-96
2021/03/20 04:18:25;;;;;;;36.55;22.55;;;;;;;;;;6316235;22;20178;-95
2021/03/20 04:20:56;;;;;;;34.40;21.85;;;;;;;;;;6317834;22;20199;-96
2021/03/20 04:23:24;;;;;;;38.78;24.15;;;;;;;;;;6319844;22;20182;-95
2021/03/20 04:25:54;;;;;;;34.65;23.30;;;;;;;;;;6317154;22;20178;-95
2021/03/20 04:28:24;;;;;;;43.13;24.25;;;;;;;;;;6318236;22;20175;-95
2021/03/20 04:30:51;;;;;;;38.22;22.90;;;;;;;;;;6317557;22;20180;-95
2021/03/20 04:33:21;;;;;;;38.20;22.80;;;;;;;;;;6319087;22;20200;-95
2021/03/20 04:35:49;;;;;;;40.83;23.45;;;;;;;;;;6317099;22;20247;-95
2021/03/20 04:38:16;;;;;;;42.97;24.15;;;;;;;;;;6318299;22;20185;-94
2021/03/20 04:40:45;;;;;;;38.50;23.30;;;;;;;;;;6316801;22;20210;-94
2021/03/20 04:43:12;;;;;;;42.30;24.80;;;;;;;;;;6318495;22;20178;-95
2021/03/20 04:45:39;;;;;;;39.60;24.85;;;;;;;;;;6316196;22;20184;-95
2021/03/20 04:48:07;;;;;;;41.40;24.48;;;;;;;;;;6319500;22;20187;-94
2021/03/20 04:50:35;;;;;;;37.47;23.58;;;;;;;;;;6318154;22;20177;-95
2021/03/20 04:53:01;;;;;;;42.13;23.60;;;;;;;;;;6319480;22;20181;-94
2021/03/20 04:55:28;;;;;;;36.53;23.02;;;;;;;;;;6318471;22;20175;-94
2021/03/20 04:57:59;;;;;;;30.48;19.70;;;;;;;;;;6319031;22;20178;-94
2021/03/20 05:00:28;;;;;;;33.55;20.65;;;;;;;;;;6321666;22;20194;-93
2021/03/20 05:02:57;;;;;;;34.67;21.77;;;;;;;;;;6320168;22;20183;-95
2021/03/20 05:05:26;;;;;;;37.08;21.02;;;;;;;;;;6319283;22;20202;-94
2021/03/20 05:07:52;;;;;;;33.97;20.67;;;;;;;;;;6321135;22;20201;-94
2021/03/20 05:10:22;;;;;;;34.45;20.75;;;;;;;;;;6318933;22;20185;-93
2021/03/20 05:12:49;;;;;;;36.42;21.65;;;;;;;;;;6316051;22;20249;-93
2021/03/20 05:15:23;;;;;;;31.83;21.65;;;;;;;;;;6318205;22;20190;-95
2021/03/20 05:17:49;;;;;;;32.45;21.70;;;;;;;;;;6319978;22;20177;-92
2021/03/20 05:20:15;;;;;;;35.63;21.30;;;;;;;;;;6322338;22;20206;-94
2021/03/20 05:22:41;;;;;;;36.28;21.30;;;;;;;;;;6316501;22;20179;-94
2021/03/20 05:25:08;;;;;;;35.40;22.60;;;;;;;;;;6318214;22;20178;-94
2021/03/20 05:27:35;;;;;;;35.88;22.08;;;;;;;;;;6317089;22;20186;-93
2021/03/20 05:30:01;;;;;;;31.50;21.15;;;;;;;;;;6319190;22;20277;-95
2021/03/20 05:32:28;;;;;;;37.08;21.73;;;;;;;;;;6317925;22;20175;-94
2021/03/20 05:34:55;;;;;;;32.95;21.15;;;;;;;;;;6318214;22;20225;-94
2021/03/20 05:37:23;;;;;;;37.78;22.48;;;;;;;;;;6316262;22;20181;-93
2021/03/20 05:39:49;;;;;;;39.70;23.73;;;;;;;;;;6316904;22;20198;-93
2021/03/20 05:42:45;;;;;;;35.15;22.73;;;;;;;;;;6314391;22;20183;-93
2021/03/20 05:45:18;;;;;;;35.17;21.90;;;;;;;;;;6191041;23;20555;-93
2021/03/20 05:47:54;;;;;;;39.75;22.48;;;;;;;;;;6291938;22;20500;-93
2021/03/20 05:50:28;;;;;;;41.38;23.17;;;;;;;;;;6317569;22;20184;-92
2021/03/20 05:53:10;;;;;;;34.95;21.83;;;;;;;;;;6316812;22;20180;-93
2021/03/20 05:55:40;;;;;;;33.97;22.30;;;;;;;;;;6317110;22;20541;-92
2021/03/20 05:58:14;;;;;;;34.30;20.93;;;;;;;;;;6315044;22;20194;-94
2021/03/20 06:00:46;;;;;;;35.42;21.58;;;;;;;;;;6315584;22;20451;-93
2021/03/20 06:03:37;;;;;;;35.38;22.23;;;;;;;;;;6314056;22;20264;-93
2021/03/20 06:06:05;;;;;;;38.90;23.40;;;;;;;;;;6316952;22;20183;-93
2021/03/20 06:08:41;;;;;;;38.85;23.02;;;;;;;;;;6315176;22;20179;-93
2021/03/20 06:11:14;;;;;;;37.97;22.80;;;;;;;;;;6315510;22;20215;-93
2021/03/20 06:13:55;;;;;;;39.08;22.50;;;;;;;;;;6313848;22;20180;-94
2021/03/20 06:16:25;;;;;;;37.40;23.15;;;;;;;;;;6314201;22;20187;-92
2021/03/20 06:19:05;;;;;;;41.20;23.15;;;;;;;;;;6316944;22;20183;-92
2021/03/20 06:21:39;;;;;;;41.13;24.53;;;;;;;;;;6316572;22;20633;-93
2021/03/20 06:24:14;;;;;;;37.80;23.10;;;;;;;;;;6315295;22;20406;-92
2021/03/20 06:26:40;;;;;;;37.20;23.92;;;;;;;;;;6315178;22;20405;-91
2021/03/20 06:29:12;;;;;;;41.53;25.23;;;;;;;;;;6314303;22;20237;-93
2021/03/20 06:31:39;;;;;;;35.25;22.17;;;;;;;;;;6316278;22;20209;-93
2021/03/20 06:34:13;;;;;;;40.75;27.17;;;;;;;;;;6314573;22;20245;-94
2021/03/20 06:36:42;;;;;;;41.85;26.55;;;;;;;;;;6318001;22;20179;-93
2021/03/20 06:39:14;;;;;;;35.58;24.17;;;;;;;;;;6316069;22;20176;-93
2021/03/20 06:41:43;;;;;;;34.40;22.63;;;;;;;;;;6315783;22;20215;-93
2021/03/20 06:44:17;;;;;;;38.15;22.83;;;;;;;;;;6314230;22;20464;-92
2021/03/20 06:46:44;;;;;;;35.58;23.30;;;;;;;;;;6316976;22;20179;-92
2021/03/20 06:49:20;;;;;;;31.15;20.67;;;;;;;;;;6317415;22;20577;-93
2021/03/20 06:51:46;;;;;;;30.30;19.80;;;;;;;;;;6319786;22;20174;-93
2021/03/20 06:54:13;;;;;;;35.07;20.60;;;;;;;;;;6316404;22;20591;-93
2021/03/20 06:56:40;;;;;;;32.80;19.85;;;;;;;;;;6316573;22;20419;-92
2021/03/20 06:59:10;;;;;;;31.90;20.90;;;;;;;;;;6317892;22;20199;-93
2021/03/20 07:01:39;;;;;;;31.90;19.90;;;;;;;;;;6316068;22;20408;-92
2021/03/20 07:04:30;;;;;;;38.15;21.90;;;;;;;;;;6317763;22;20422;-93
2021/03/20 07:07:02;;;;;;;36.80;22.27;;;;;;;;;;6315611;22;20183;-91
2021/03/20 07:09:28;;;;;;;28.42;20.17;;;;;;;;;;6316425;22;20180;-93
2021/03/20 07:12:06;;;;;;;32.47;21.35;;;;;;;;;;6315047;22;20180;-93
2021/03/20 07:14:34;;;;;;;34.87;22.00;;;;;;;;;;6317318;22;20186;-92
2021/03/20 07:17:01;;;;;;;32.13;22.07;;;;;;;;;;6314806;22;20407;-92
2021/03/20 07:19:28;;;;;;;30.77;21.17;;;;;;;;;;6295266;22;21035;-91
2021/03/20 07:22:03;;;;;;;33.30;22.43;;;;;;;;;;6316483;22;20522;-92
2021/03/20 07:24:32;;;;;;;37.80;24.17;;;;;;;;;;6316916;22;20923;-93
2021/03/20 07:26:58;;;;;;;36.37;21.63;;;;;;;;;;6312525;22;20419;-94
2021/03/20 07:29:37;;;;;;;43.60;26.93;;;;;;;;;;6315632;22;20783;-92
2021/03/20 07:32:04;;;;;;;43.80;26.13;;;;;;;;;;6314578;22;20407;-93
2021/03/20 07:34:32;;;;;;;37.93;27.00;;;;;;;;;;6315039;22;20751;-93
2021/03/20 07:37:06;;;;;;;40.80;28.00;;;;;;;;;;6314578;22;20799;-92
2021/03/20 07:39:40;;;;;;;44.23;29.37;;;;;;;;;;6317499;22;20435;-92
2021/03/20 07:42:09;;;;;;;46.20;33.60;;;;;;;;;;6313073;22;20415;-92
2021/03/20 07:44:50;;;;;;;44.00;30.57;;;;;;;;;;6314400;22;20434;-93
2021/03/20 07:47:19;;;;;;;45.57;29.50;;;;;;;;;;6314961;22;20406;-92
2021/03/20 07:49:46;;;;;;;39.37;28.10;;;;;;;;;;6315881;22;20420;-93
2021/03/20 07:52:22;;;;;;;43.70;29.73;;;;;;;;;;6315054;22;20412;-93
2021/03/20 07:54:48;;;;;;;40.47;27.90;;;;;;;;;;6316809;22;20408;-94
2021/03/20 07:57:15;;;;;;;41.27;27.17;;;;;;;;;;6317609;22;20893;-93
2021/03/20 07:59:42;;;;;;;39.03;26.83;;;;;;;;;;6319624;22;20497;-94
2021/03/20 08:02:11;;;;;;;41.37;26.90;;;;;;;;;;6319705;22;20404;-93
2021/03/20 08:04:50;;;;;;;40.30;27.50;;;;;;;;;;6318422;22;20446;-93
2021/03/20 08:07:27;;;;;;;41.10;26.43;;;;;;;;;;6318035;22;20407;-93
2021/03/20 08:10:05;;;;;;;38.17;26.40;;;;;;;;;;6319176;22;20416;-92
2021/03/20 08:12:31;;;;;;;38.23;25.50;;;;;;;;;;6314915;22;20407;-92
2021/03/20 08:15:00;;;;;;;37.43;24.40;;;;;;;;;;6316694;22;20410;-92
2021/03/20 08:17:26;;;;;;;42.67;26.03;;;;;;;;;;6319280;22;20438;-92
2021/03/20 08:19:53;;;;;;;39.20;25.20;;;;;;;;;;6316669;22;20475;-92
2021/03/20 08:22:29;;;;;;;35.47;23.47;;;;;;;;;;6317703;22;20407;-92
2021/03/20 08:25:02;;;;;;;37.83;22.00;;;;;;;;;;6317221;22;20410;-91
2021/03/20 08:27:33;;;;;;;36.30;23.70;;;;;;;;;;6317155;22;20410;-91
2021/03/20 08:30:14;;;;;;;34.70;22.97;;;;;;;;;;6316249;22;20176;-92
2021/03/20 08:32:47;;;;;;;31.97;21.60;;;;;;;;;;6314935;22;20422;-92
2021/03/20 08:35:18;;;;;;;29.23;21.67;;;;;;;;;;6315179;22;20421;-92
2021/03/20 08:37:52;;;;;;;33.63;23.23;;;;;;;;;;6318194;22;20422;-93
2021/03/20 08:40:31;;;;;;;37.33;22.60;;;;;;;;;;6316336;22;20200;-92
2021/03/20 08:43:06;;;;;;;34.30;23.83;;;;;;;;;;6316579;22;20440;-92
2021/03/20 08:45:37;;;;;;;36.93;22.87;;;;;;;;;;6314910;22;20413;-91
2021/03/20 08:48:14;;;;;;;37.60;22.80;;;;;;;;;;6315753;22;20415;-90
2021/03/20 08:50:47;;;;;;;39.13;24.30;;;;;;;;;;6316066;22;20415;-93
2021/03/20 08:53:17;;;;;;;28.97;21.30;;;;;;;;;;6318332;22;20934;-91
2021/03/20 08:55:51;;;;;;;30.37;21.50;;;;;;;;;;6316517;22;20408;-92
2021/03/20 08:58:24;;;;;;;32.87;22.53;;;;;;;;;;6316866;22;20400;-92
2021/03/20 09:00:53;;;;;;;33.10;22.30;;;;;;;;;;6315952;22;20470;-92
2021/03/20 09:03:21;;;;;;;34.83;24.40;;;;;;;;;;6319635;22;20414;-92
2021/03/20 09:05:52;;;;;;;28.73;20.97;;;;;;;;;;6312758;22;20412;-91
2021/03/20 09:08:23;;;;;;;33.40;23.33;;;;;;;;;;6313791;22;20708;-92
2021/03/20 09:10:55;;;;;;;32.90;22.03;;;;;;;;;;6312717;22;20418;-94
2021/03/20 09:13:26;;;;;;;38.10;26.13;;;;;;;;;;6316710;22;20411;-94
2021/03/20 09:15:55;;;;;;;35.70;25.80;;;;;;;;;;6315050;22;20434;-93
2021/03/20 09:18:22;;;;;;;31.50;23.03;;;;;;;;;;6315390;22;20447;-95
2021/03/20 09:20:53;;;;;;;28.33;20.93;;;;;;;;;;6315851;22;20498;-94
2021/03/20 09:23:24;;;;;;;31.37;22.30;;;;;;;;;;6317664;22;20428;-93
2021/03/20 09:25:53;;;;;;;32.43;24.80;;;;;;;;;;6316959;22;20408;-94
2021/03/20 09:28:27;;;;;;;29.77;20.73;;;;;;;;;;6319887;22;20434;-94
2021/03/20 09:30:55;;;;;;;28.63;19.77;;;;;;;;;;6318180;22;20415;-94
2021/03/20 09:33:42;;;;;;;27.43;19.53;;;;;;;;;;6318275;22;20446;-94
2021/03/20 09:36:29;;;;;;;27.77;20.70;;;;;;;;;;6315501;22;20412;-92
2021/03/20 09:38:55;;;;;;;32.63;23.10;;;;;;;;;;6315703;22;20408;-93
2021/03/20 09:41:37;;;;;;;32.63;23.00;;;;;;;;;;6314608;22;20447;-93
2021/03/20 09:44:27;;;;;;;32.57;23.63;;;;;;;;;;6319033;22;20408;-92
2021/03/20 09:46:58;;;;;;;42.03;23.93;;;;;;;;;;6286263;22;20412;-90
2021/03/20 09:49:51;;;;;;;35.57;24.03;;;;;;;;;;6319384;22;20412;-92
2021/03/20 09:52:37;;;;;;;36.80;24.90;;;;;;;;;;6314246;22;20411;-92
2021/03/20 09:55:22;;;;;;;31.40;23.63;;;;;;;;;;6314917;22;20415;-92
2021/03/20 09:57:52;;;;;;;31.53;22.80;;;;;;;;;;6316804;22;20408;-93
2021/03/20 10:00:36;;;;;;;36.83;25.93;;;;;;;;;;6317837;22;20881;-92
2021/03/20 10:03:02;;;;;;;41.83;25.67;;;;;;;;;;6314108;22;20445;-92
2021/03/20 10:05:29;;;;;;;39.90;24.90;;;;;;;;;;6316422;22;20404;-94
2021/03/20 10:07:57;;;;;;;34.93;24.63;;;;;;;;;;6315700;22;20408;-92
2021/03/20 10:10:42;;;;;;;38.23;26.07;;;;;;;;;;6316369;22;20408;-92
2021/03/20 10:13:13;;;;;;;37.17;24.77;;;;;;;;;;6312699;22;20400;-92
2021/03/20 10:15:52;;;;;;;35.53;23.73;;;;;;;;;;6313941;22;20428;-93
2021/03/20 10:18:26;;;;;;;34.43;24.07;;;;;;;;;;6314792;22;20423;-93
2021/03/20 10:21:00;;;;;;;38.40;24.10;;;;;;;;;;6316327;22;20446;-94
2021/03/20 10:23:38;;;;;;;33.43;22.90;;;;;;;;;;6316080;22;20433;-94
2021/03/20 10:26:11;;;;;;;34.60;23.88;;;;;;;;;;6316791;22;20400;-94
2021/03/20 10:28:39;;;;;;;34.30;23.83;;;;;;;;;;6310983;22;20178;-95
2021/03/20 10:31:06;;;;;;;35.83;23.90;;;;;;;;;;6315837;22;20404;-93
2021/03/20 10:33:33;;;;;;;32.37;22.60;;;;;;;;;;6315668;22;20526;-94
2021/03/20 10:36:10;;;;;;;33.03;22.20;;;;;;;;;;6318383;22;20465;-94
2021/03/20 10:38:38;;;;;;;32.50;22.00;;;;;;;;;;6319072;22;20407;-93
2021/03/20 10:41:06;;;;;;;34.57;23.00;;;;;;;;;;6319587;22;20454;-95
2021/03/20 10:43:37;;;;;;;33.10;22.73;;;;;;;;;;6285398;22;20412;-95
2021/03/20 10:52:04;;;;;;;30.43;20.83;;;;;;;;;;6327596;22;20415;-96
2021/03/20 10:54:48;;;;;;;31.07;21.90;;;;;;;;;;5153230;27;962170;-96
2021/03/20 10:57:16;;;;;;;32.80;22.43;;;;;;;;;;5161193;27;20199;-95
2021/03/20 10:59:44;;;;;;;29.07;21.90;;;;;;;;;;5157904;27;20437;-96
2021/03/20 11:02:39;;;;;;;32.53;21.97;;;;;;;;;;5186799;27;20443;-96
2021/03/20 11:14:17;;;;;;;32.77;22.50;;;;;;;;;;5173229;27;20968;-96
2021/03/20 11:16:46;;;;;;;31.27;21.80;;;;;;;;;;5171794;27;20453;-94
2021/03/20 11:19:19;;;;;;;31.40;21.07;;;;;;;;;;5173590;27;20522;-96
2021/03/20 11:21:46;;;;;;;29.60;21.23;;;;;;;;;;5174757;27;20479;-95
2021/03/20 11:24:21;;;;;;;29.93;21.30;;;;;;;;;;5169413;27;20520;-96
2021/03/20 11:26:48;;;;;;;32.83;22.30;;;;;;;;;;5177566;27;20987;-94
2021/03/20 11:32:02;;;;;;;30.03;22.50;;;;;;;;;;5176399;27;20517;-94
2021/03/20 11:34:30;;;;;;;31.63;23.03;;;;;;;;;;5164068;27;20473;-94
2021/03/20 11:39:38;;;;;;;29.13;21.10;;;;;;;;;;5174564;27;20431;-94
2021/03/20 11:42:06;;;;;;;30.50;21.20;;;;;;;;;;5172760;27;20532;-96
2021/03/20 11:44:35;;;;;;;34.53;24.20;;;;;;;;;;5180915;27;20463;-95
2021/03/20 11:47:03;;;;;;;33.27;22.97;;;;;;;;;;5168223;27;20472;-94
2021/03/20 11:49:36;;;;;;;37.80;24.13;;;;;;;;;;5185178;27;20516;-96
2021/03/20 11:52:03;;;;;;;31.40;22.53;;;;;;;;;;5170815;27;20478;-95
2021/03/20 11:54:31;;;;;;;28.97;19.77;;;;;;;;;;5173351;27;20489;-94
2021/03/20 11:56:59;;;;;;;30.53;21.30;;;;;;;;;;5175000;27;20473;-94
2021/03/20 11:59:46;;;;;;;32.00;21.20;;;;;;;;;;5169027;27;20442;-95
2021/03/20 12:02:33;;;;;;;33.27;22.90;;;;;;;;;;5170657;27;20464;-96
2021/03/20 12:05:09;;;;;;;33.83;22.73;;;;;;;;;;5170023;27;20550;-96
2021/03/20 12:07:45;;;;;;;35.07;24.60;;;;;;;;;;5163882;27;20446;-96
2021/03/20 12:10:19;;;;;;;31.73;23.17;;;;;;;;;;5171387;27;20445;-96
2021/03/20 12:12:47;;;;;;;33.00;23.60;;;;;;;;;;5154887;27;20472;-96
2021/03/20 12:15:25;;;;;;;29.20;22.20;;;;;;;;;;5156564;27;20438;-96
2021/03/20 12:17:57;;;;;;;33.73;22.63;;;;;;;;;;5164543;27;20437;-96
2021/03/20 12:20:34;;;;;;;35.47;23.53;;;;;;;;;;5154722;27;20529;-96
2021/03/20 12:23:12;;;;;;;33.00;23.33;;;;;;;;;;5155537;27;20433;-96
2021/03/20 12:25:44;;;;;;;34.90;24.50;;;;;;;;;;5159522;27;20447;-95
2021/03/20 12:28:21;;;;;;;32.60;23.53;;;;;;;;;;5148022;27;20484;-96
2021/03/20 12:31:00;;;;;;;31.90;23.17;;;;;;;;;;5149037;27;20457;-96
2021/03/20 12:33:30;;;;;;;37.43;23.70;;;;;;;;;;5134936;27;20494;-96
2021/03/20 12:35:56;;;;;;;33.43;22.40;;;;;;;;;;5168438;27;20475;-95
2021/03/20 12:38:22;;;;;;;34.47;23.60;;;;;;;;;;5150011;27;20449;-94
2021/03/20 12:40:54;;;;;;;35.07;22.70;;;;;;;;;;5152917;27;20454;-96
2021/03/20 12:43:28;;;;;;;36.63;24.33;;;;;;;;;;5144900;27;20443;-96
2021/03/20 12:45:55;;;;;;;31.47;22.40;;;;;;;;;;5154718;27;20595;-95
2021/03/20 12:48:21;;;;;;;36.93;24.27;;;;;;;;;;5137721;27;20442;-95
2021/03/20 12:50:49;;;;;;;35.83;24.23;;;;;;;;;;5150615;27;20483;-95
2021/03/20 12:53:15;;;;;;;37.67;24.83;;;;;;;;;;5160059;27;20501;-93
2021/03/20 12:55:42;;;;;;;32.03;21.83;;;;;;;;;;5156132;27;20458;-92
2021/03/20 12:58:08;;;;;;;31.13;22.37;;;;;;;;;;5158926;27;20457;-94
2021/03/20 13:00:34;;;;;;;35.13;25.80;;;;;;;;;;5148633;27;20459;-95
2021/03/20 13:03:00;;;;;;;31.70;22.50;;;;;;;;;;5161712;27;21055;-94
2021/03/20 13:05:28;;;;;;;32.87;23.33;;;;;;;;;;5141631;27;20450;-93
2021/03/20 13:07:55;;;;;;;34.63;23.73;;;;;;;;;;5143667;27;20452;-92
2021/03/20 13:10:21;;;;;;;36.83;23.80;;;;;;;;;;5141789;27;21150;-93
2021/03/20 13:12:47;;;;;;;31.77;23.63;;;;;;;;;;5150119;27;20518;-95
2021/03/20 13:15:13;;;;;;;33.40;24.00;;;;;;;;;;5150110;27;20447;-91
2021/03/20 13:17:39;;;;;;;36.00;23.57;;;;;;;;;;5151064;27;20437;-91
2021/03/20 13:20:07;;;;;;;29.87;21.60;;;;;;;;;;5150647;27;20840;-92
2021/03/20 13:22:34;;;;;;;32.83;23.27;;;;;;;;;;5150602;27;20945;-94
2021/03/20 13:25:00;;;;;;;30.60;21.77;;;;;;;;;;5149251;27;20448;-93
2021/03/20 13:27:27;;;;;;;29.30;21.13;;;;;;;;;;5155083;27;20450;-94
2021/03/20 13:29:53;;;;;;;33.97;23.30;;;;;;;;;;5155549;27;20458;-95
2021/03/20 13:32:19;;;;;;;36.90;23.57;;;;;;;;;;5147844;27;20504;-94
2021/03/20 13:34:45;;;;;;;33.20;22.93;;;;;;;;;;5160194;27;20523;-93
2021/03/20 13:37:11;;;;;;;31.37;22.60;;;;;;;;;;5140038;27;20439;-96
2021/03/20 13:39:37;;;;;;;33.70;23.70;;;;;;;;;;5164885;27;20473;-96
2021/03/20 13:42:13;;;;;;;33.50;22.57;;;;;;;;;;5165360;27;20452;-96
2021/03/20 13:44:39;;;;;;;33.13;23.02;;;;;;;;;;5156905;27;20440;-96
2021/03/20 13:47:06;;;;;;;33.43;24.03;;;;;;;;;;5153577;27;20672;-93
2021/03/20 13:49:32;;;;;;;35.00;23.73;;;;;;;;;;5155933;27;20456;-92
2021/03/20 13:51:59;;;;;;;34.87;24.17;;;;;;;;;;5147017;27;20446;-96
2021/03/20 13:54:25;;;;;;;40.55;24.40;;;;;;;;;;5153931;27;20497;-95
2021/03/20 13:56:52;;;;;;;32.53;21.07;;;;;;;;;;5151794;27;20216;-95
2021/03/20 13:59:19;;;;;;;35.53;22.88;;;;;;;;;;5164042;27;20446;-96
2021/03/20 14:01:45;;;;;;;34.20;24.13;;;;;;;;;;5162520;27;20191;-96
2021/03/20 14:04:20;;;;;;;30.15;20.65;;;;;;;;;;5166788;27;20480;-94
2021/03/20 14:06:46;;;;;;;31.10;21.40;;;;;;;;;;5144006;27;20247;-90
2021/03/20 14:09:12;;;;;;;32.43;21.33;;;;;;;;;;5145861;27;20464;-91
2021/03/20 14:11:38;;;;;;;30.87;21.43;;;;;;;;;;5143406;27;20450;-91
2021/03/20 14:14:04;;;;;;;30.43;21.80;;;;;;;;;;5153607;27;20549;-91
2021/03/20 14:16:31;;;;;;;32.53;21.67;;;;;;;;;;5152829;27;20454;-92
2021/03/20 14:18:57;;;;;;;28.60;21.30;;;;;;;;;;5149044;27;20448;-91
2021/03/20 14:21:23;;;;;;;29.77;20.93;;;;;;;;;;5148917;27;20445;-94
2021/03/20 14:23:50;;;;;;;36.67;23.63;;;;;;;;;;5143255;27;20455;-94
2021/03/20 14:26:16;;;;;;;31.27;23.00;;;;;;;;;;5153034;27;20198;-94
2021/03/20 14:28:42;;;;;;;33.30;22.30;;;;;;;;;;5149906;27;20455;-92
2021/03/20 14:31:08;;;;;;;32.70;21.77;;;;;;;;;;5154317;27;20463;-91
2021/03/20 14:33:39;;;;;;;35.20;24.00;;;;;;;;;;5144788;27;20541;-92
2021/03/20 14:36:06;;;;;;;31.40;22.48;;;;;;;;;;5153870;27;20513;-93
2021/03/20 14:38:33;;;;;;;28.80;20.63;;;;;;;;;;5147966;27;20181;-96
2021/03/20 14:41:07;;;;;;;27.83;20.33;;;;;;;;;;5168048;27;20988;-95
2021/03/20 14:43:33;;;;;;;34.60;21.33;;;;;;;;;;5140087;27;20213;-93
2021/03/20 14:46:00;;;;;;;24.43;18.00;;;;;;;;;;5149935;27;20463;-92
2021/03/20 14:48:27;;;;;;;29.27;22.23;;;;;;;;;;5147289;27;20468;-92
2021/03/20 14:50:55;;;;;;;30.27;20.55;;;;;;;;;;5148489;27;20416;-92
2021/03/20 14:53:21;;;;;;;32.07;22.03;;;;;;;;;;5148956;27;20239;-94
2021/03/20 14:55:47;;;;;;;32.50;23.30;;;;;;;;;;5153099;27;20441;-93
2021/03/20 14:58:14;;;;;;;27.07;20.23;;;;;;;;;;5151641;27;20443;-95
2021/03/20 15:00:41;;;;;;;24.75;19.83;;;;;;;;;;5150389;27;20928;-95
2021/03/20 15:03:07;;;;;;;26.50;18.73;;;;;;;;;;5164055;27;20201;-95
2021/03/20 15:05:34;;;;;;;26.70;19.90;;;;;;;;;;5149285;27;20458;-95
2021/03/20 15:08:01;;;;;;;31.92;21.52;;;;;;;;;;5153271;27;20432;-94
2021/03/20 15:10:29;;;;;;;41.92;31.95;;;;;;;;;;5149313;27;20213;-93
2021/03/20 15:12:56;;;;;;;30.02;21.83;;;;;;;;;;5156728;27;20206;-92
2021/03/20 15:15:23;;;;;;;30.23;21.38;;;;;;;;;;5135033;27;20663;-92
2021/03/20 15:17:50;;;;;;;30.13;21.07;;;;;;;;;;5143295;27;20207;-94
2021/03/20 15:20:17;;;;;;;28.30;19.83;;;;;;;;;;5136339;27;20473;-92
2021/03/20 15:22:43;;;;;;;32.07;21.93;;;;;;;;;;5154499;27;20447;-93